Brightway — 9V8755 — position and weather

sailwx.info

Track history (hours):
 
Tides and Currents Weather Stations Pressure Air Temp Water Temp Dewpoint Dewpoint Depression Visibility Wind Speed Wind Dir Waves Ship Positions

Brightway

Last reported at 2017-Feb-21 17:32 UTC. Time now 2017-Feb-24 17:44 UTC.
Position N 35°60' E 014°53'.

Length 274 m; draft 17.2 m.

Type: Tanker. MMSI: 566422000.

Date/timePositionNaut miles runAvg speedWind from/ knotsBaromVisibWave heightAir tempDewpointWater temp
2017-Feb-21 17:32N 35°60' E 014°53'0 0.3
2017-Feb-21 16:24N 35°60' E 014°53'0 0.0
2017-Feb-21 15:15N 35°59' E 014°53'0 0.0
2017-Feb-21 14:06N 35°59' E 014°53'0 0.0
2017-Feb-21 13:30N 35°59' E 014°53'0 0.0
2017-Feb-21 11:27N 35°59' E 014°53'0 0.0
2017-Feb-21 09:27N 35°59' E 014°53'0 0.0
2017-Feb-21 07:27N 35°59' E 014°53'0 0.0
2017-Feb-21 06:30N 35°59' E 014°53'0 0.0
2017-Feb-21 05:33N 35°59' E 014°53'0 0.0
2017-Feb-21 04:30N 35°59' E 014°53'0 0.0
2017-Feb-21 03:18N 35°59' E 014°53'0 0.0
2017-Feb-21 02:33N 35°60' E 014°53'0 0.1
2017-Feb-21 01:24N 35°59' E 014°53'0 0.1
2017-Feb-21 00:33N 35°59' E 014°52'0 0.0
2017-Feb-20 17:03N 35°59' E 014°52'0 0.0
2017-Feb-20 16:33N 35°59' E 014°52'0 0.0
2017-Feb-20 12:06N 35°60' E 014°52'1 1.0
2017-Feb-20 11:33N 36°00' E 014°52'5 4.9
2017-Feb-20 10:31N 36°04' E 014°49'4 4.0
2017-Feb-20 09:33N 36°05' E 014°44'1 0.7
2017-Feb-20 08:33N 36°05' E 014°44'7 7.5
2017-Feb-20 07:33N 35°60' E 014°50'  
2017-Feb-16 16:28N 35°58' E 014°52'3 2.9
2017-Feb-16 15:33N 35°60' E 014°50'5 5.1
2017-Feb-16 14:33N 36°03' E 014°44'8 3.8
2017-Feb-16 12:29N 36°02' E 014°54'0 0.0
2017-Feb-16 11:26N 36°02' E 014°54'0 0.0
2017-Feb-16 07:23N 36°02' E 014°54'0 0.0
2017-Feb-14 10:29N 36°02' E 014°54'1 0.8
2017-Feb-14 09:19N 36°02' E 014°53'810.6
2017-Feb-14 08:33N 36°05' E 014°43'4 4.3
2017-Feb-14 07:32N 36°05' E 014°38'1 1.4
2017-Feb-14 06:33N 36°06' E 014°36'1 0.9
2017-Feb-14 05:33N 36°06' E 014°37'1 0.9
2017-Feb-14 04:33N 36°05' E 014°39'3 3.0
2017-Feb-14 03:33N 36°08' E 014°39'5 4.7
2017-Feb-14 02:33N 36°13' E 014°40'5 4.6
2017-Feb-14 01:33N 36°18' E 014°41'3 3.3
2017-Feb-14 00:33N 36°21' E 014°41'1 1.2
2017-Feb-13 23:26N 36°20' E 014°41'1 1.2
2017-Feb-13 22:32N 36°19' E 014°41'1 1.3
2017-Feb-13 21:33N 36°17' E 014°42'1 1.1
2017-Feb-13 20:33N 36°16' E 014°42'1 1.1
2017-Feb-13 19:33N 36°15' E 014°43'1 1.1
2017-Feb-13 18:33N 36°14' E 014°43'1 0.9
2017-Feb-13 17:33N 36°14' E 014°44'1 1.0
2017-Feb-13 16:33N 36°13' E 014°44'3 3.1
2017-Feb-13 15:33N 36°10' E 014°45'5 5.0
2017-Feb-13 14:31N 36°05' E 014°48'5 4.6
2017-Feb-13 13:23N 36°01' E 014°52'0 0.0
2017-Feb-12 17:14N 36°00' E 014°51'0 0.0
2017-Feb-12 16:32N 36°00' E 014°51'0 0.0
2017-Feb-12 15:32N 36°00' E 014°52'0 0.1
2017-Feb-12 14:32N 36°00' E 014°51'0 0.0
2017-Feb-12 13:32N 36°00' E 014°51'0 0.0
2017-Feb-12 12:32N 36°00' E 014°52'0 0.0
2017-Feb-12 11:32N 36°00' E 014°52'0 0.0
2017-Feb-12 10:29N 36°00' E 014°51'0 0.0
2017-Feb-12 09:32N 36°00' E 014°52'0 0.0
2017-Feb-12 08:32N 36°00' E 014°52'0 0.0
2017-Feb-12 07:32N 36°00' E 014°52'0 0.0
2017-Feb-12 06:23N 36°00' E 014°52'0 0.0
2017-Feb-12 05:32N 36°00' E 014°52'1 0.5
2017-Feb-12 04:33N 36°01' E 014°51'5 4.0
2017-Feb-12 03:25N 36°05' E 014°53'  
Track history (hours):
 
Tides and Currents Weather Stations Pressure Air Temp Water Temp Dewpoint Dewpoint Depression Visibility Wind Speed Wind Dir Waves Ship Positions

Brightway

Last reported at 2017-Feb-21 17:32 UTC. Time now 2017-Feb-24 17:44 UTC.
Position N 35°60' E 014°53'.

Length 274 m; draft 17.2 m.

Type: Tanker. MMSI: 566422000.

Date/timePositionNaut miles runAvg speedWind from/ knotsBaromVisibWave heightAir tempDewpointWater temp
2017-Feb-21 17:32N 35°60' E 014°53'0 0.3
2017-Feb-21 16:24N 35°60' E 014°53'0 0.0
2017-Feb-21 15:15N 35°59' E 014°53'0 0.0
2017-Feb-21 14:06N 35°59' E 014°53'0 0.0
2017-Feb-21 13:30N 35°59' E 014°53'0 0.0
2017-Feb-21 11:27N 35°59' E 014°53'0 0.0
2017-Feb-21 09:27N 35°59' E 014°53'0 0.0
2017-Feb-21 07:27N 35°59' E 014°53'0 0.0
2017-Feb-21 06:30N 35°59' E 014°53'0 0.0
2017-Feb-21 05:33N 35°59' E 014°53'0 0.0
2017-Feb-21 04:30N 35°59' E 014°53'0 0.0
2017-Feb-21 03:18N 35°59' E 014°53'0 0.0
2017-Feb-21 02:33N 35°60' E 014°53'0 0.1
2017-Feb-21 01:24N 35°59' E 014°53'0 0.1
2017-Feb-21 00:33N 35°59' E 014°52'0 0.0
2017-Feb-20 17:03N 35°59' E 014°52'0 0.0
2017-Feb-20 16:33N 35°59' E 014°52'0 0.0
2017-Feb-20 12:06N 35°60' E 014°52'1 1.0
2017-Feb-20 11:33N 36°00' E 014°52'5 4.9
2017-Feb-20 10:31N 36°04' E 014°49'4 4.0
2017-Feb-20 09:33N 36°05' E 014°44'1 0.7
2017-Feb-20 08:33N 36°05' E 014°44'7 7.5
2017-Feb-20 07:33N 35°60' E 014°50'  
2017-Feb-16 16:28N 35°58' E 014°52'3 2.9
2017-Feb-16 15:33N 35°60' E 014°50'5 5.1
2017-Feb-16 14:33N 36°03' E 014°44'8 3.8
2017-Feb-16 12:29N 36°02' E 014°54'0 0.0
2017-Feb-16 11:26N 36°02' E 014°54'0 0.0
2017-Feb-16 07:23N 36°02' E 014°54'0 0.0
2017-Feb-14 10:29N 36°02' E 014°54'1 0.8
2017-Feb-14 09:19N 36°02' E 014°53'810.6
2017-Feb-14 08:33N 36°05' E 014°43'4 4.3
2017-Feb-14 07:32N 36°05' E 014°38'1 1.4
2017-Feb-14 06:33N 36°06' E 014°36'1 0.9
2017-Feb-14 05:33N 36°06' E 014°37'1 0.9
2017-Feb-14 04:33N 36°05' E 014°39'3 3.0
2017-Feb-14 03:33N 36°08' E 014°39'5 4.7
2017-Feb-14 02:33N 36°13' E 014°40'5 4.6
2017-Feb-14 01:33N 36°18' E 014°41'3 3.3
2017-Feb-14 00:33N 36°21' E 014°41'1 1.2
2017-Feb-13 23:26N 36°20' E 014°41'1 1.2
2017-Feb-13 22:32N 36°19' E 014°41'1 1.3
2017-Feb-13 21:33N 36°17' E 014°42'1 1.1
2017-Feb-13 20:33N 36°16' E 014°42'1 1.1
2017-Feb-13 19:33N 36°15' E 014°43'1 1.1
2017-Feb-13 18:33N 36°14' E 014°43'1 0.9
2017-Feb-13 17:33N 36°14' E 014°44'1 1.0
2017-Feb-13 16:33N 36°13' E 014°44'3 3.1
2017-Feb-13 15:33N 36°10' E 014°45'5 5.0
2017-Feb-13 14:31N 36°05' E 014°48'5 4.6
2017-Feb-13 13:23N 36°01' E 014°52'0 0.0
2017-Feb-12 17:14N 36°00' E 014°51'0 0.0
2017-Feb-12 16:32N 36°00' E 014°51'0 0.0
2017-Feb-12 15:32N 36°00' E 014°52'0 0.1
2017-Feb-12 14:32N 36°00' E 014°51'0 0.0
2017-Feb-12 13:32N 36°00' E 014°51'0 0.0
2017-Feb-12 12:32N 36°00' E 014°52'0 0.0
2017-Feb-12 11:32N 36°00' E 014°52'0 0.0
2017-Feb-12 10:29N 36°00' E 014°51'0 0.0
2017-Feb-12 09:32N 36°00' E 014°52'0 0.0
2017-Feb-12 08:32N 36°00' E 014°52'0 0.0
2017-Feb-12 07:32N 36°00' E 014°52'0 0.0
2017-Feb-12 06:23N 36°00' E 014°52'0 0.0
2017-Feb-12 05:32N 36°00' E 014°52'1 0.5
2017-Feb-12 04:33N 36°01' E 014°51'5 4.0
2017-Feb-12 03:25N 36°05' E 014°53'  

Dump ship's entire track history